createdAt,value
2022-09-27T00:01:38.596Z,942.96
2022-09-27T00:04:04.861Z,942.91
2022-09-27T00:06:31.173Z,943.02
2022-09-27T00:08:57.492Z,943.03
2022-09-27T00:11:23.857Z,942.96
2022-09-27T00:13:50.215Z,942.93
2022-09-27T00:16:16.665Z,942.88
2022-09-27T00:18:42.875Z,942.98
2022-09-27T00:21:09.213Z,942.95
2022-09-27T00:23:35.543Z,943.01
2022-09-27T00:26:01.892Z,943.07
2022-09-27T00:28:28.208Z,943.20
2022-09-27T00:30:54.603Z,943.03
2022-09-27T00:33:20.900Z,943.28
2022-09-27T00:35:47.223Z,943.22
2022-09-27T00:38:13.593Z,942.98
2022-09-27T00:40:39.952Z,943.02
2022-09-27T00:43:06.270Z,942.90
2022-09-27T00:45:32.618Z,942.80
2022-09-27T00:47:58.952Z,942.91
2022-09-27T00:50:25.279Z,942.86
2022-09-27T00:52:51.655Z,942.81
2022-09-27T00:55:17.964Z,942.68
2022-09-27T00:57:44.318Z,942.74
2022-09-27T01:00:10.664Z,942.73
2022-09-27T01:02:37.016Z,942.66
2022-09-27T01:05:03.329Z,942.61
2022-09-27T01:07:29.665Z,942.64
2022-09-27T01:09:55.980Z,942.62
2022-09-27T01:12:22.307Z,942.76
2022-09-27T01:14:48.622Z,942.79
2022-09-27T01:17:14.990Z,942.71
2022-09-27T01:19:41.322Z,942.68
2022-09-27T01:22:07.670Z,942.61
2022-09-27T01:24:33.995Z,942.51
2022-09-27T01:27:00.335Z,942.55
2022-09-27T01:29:26.675Z,942.52
2022-09-27T01:31:53.011Z,942.66
2022-09-27T01:34:19.341Z,942.69
2022-09-27T01:36:45.664Z,942.59
2022-09-27T01:39:12.012Z,942.56
2022-09-27T01:41:38.348Z,942.54
2022-09-27T01:44:04.681Z,942.57
2022-09-27T01:46:31.048Z,942.57
2022-09-27T01:48:57.340Z,942.65
2022-09-27T01:51:23.693Z,942.49
2022-09-27T01:53:50.037Z,942.44
2022-09-27T01:56:16.360Z,942.48
2022-09-27T01:58:42.676Z,942.61
2022-09-27T02:01:09.076Z,942.62
2022-09-27T02:03:35.366Z,942.55
2022-09-27T02:06:01.699Z,942.51
2022-09-27T02:08:28.014Z,942.45
2022-09-27T02:10:54.403Z,942.32
2022-09-27T02:13:20.721Z,942.43
2022-09-27T02:15:47.085Z,942.37
2022-09-27T02:18:13.377Z,942.25
2022-09-27T02:20:39.697Z,942.05
2022-09-27T02:23:06.027Z,942.00
2022-09-27T02:25:32.360Z,942.04
2022-09-27T02:27:58.702Z,941.98
2022-09-27T02:30:25.037Z,941.89
2022-09-27T02:32:51.357Z,941.92
2022-09-27T02:35:17.736Z,941.76
2022-09-27T02:37:44.049Z,941.64
2022-09-27T02:40:10.448Z,941.72
2022-09-27T02:42:36.713Z,941.61
2022-09-27T02:45:03.027Z,941.54
2022-09-27T02:47:29.350Z,941.69
2022-09-27T02:49:55.697Z,941.75
2022-09-27T02:52:22.045Z,941.87
2022-09-27T02:54:48.381Z,941.81
2022-09-27T02:57:14.723Z,941.80
2022-09-27T02:59:41.041Z,941.87
2022-09-27T03:02:11.159Z,941.92
2022-09-27T03:04:33.706Z,941.89
2022-09-27T03:07:00.047Z,941.74
2022-09-27T03:09:26.385Z,941.53
2022-09-27T03:11:52.714Z,941.29
2022-09-27T03:14:19.058Z,941.32
2022-09-27T03:16:45.416Z,941.42
2022-09-27T03:19:11.748Z,941.31
2022-09-27T03:21:38.061Z,941.15
2022-09-27T03:24:04.407Z,941.17
2022-09-27T03:26:30.740Z,941.07
2022-09-27T03:28:57.063Z,941.06
2022-09-27T03:31:23.454Z,941.17
2022-09-27T03:33:49.755Z,941.03
2022-09-27T03:36:16.076Z,941.00
2022-09-27T03:38:42.393Z,941.07
2022-09-27T03:41:08.729Z,941.10
2022-09-27T03:43:35.063Z,941.04
2022-09-27T03:46:01.454Z,941.16
2022-09-27T03:48:28.404Z,941.24
2022-09-27T03:50:54.075Z,941.21
2022-09-27T03:53:20.436Z,941.11
2022-09-27T03:55:46.785Z,941.13
2022-09-27T03:58:13.116Z,941.14
2022-09-27T04:00:39.482Z,941.08
2022-09-27T04:03:05.831Z,941.07
2022-09-27T04:05:32.154Z,941.18
2022-09-27T04:07:58.498Z,941.18
2022-09-27T04:10:24.842Z,941.23
2022-09-27T04:12:51.184Z,941.24
2022-09-27T04:15:17.560Z,941.19
2022-09-27T04:17:43.845Z,941.05
2022-09-27T04:20:10.187Z,940.98
2022-09-27T04:22:36.524Z,941.00
2022-09-27T04:25:02.839Z,941.00
2022-09-27T04:27:29.189Z,940.94
2022-09-27T04:29:55.510Z,940.97
2022-09-27T04:32:21.850Z,941.02
2022-09-27T04:34:48.199Z,941.10
2022-09-27T04:37:14.536Z,941.14
2022-09-27T04:39:40.854Z,941.19
2022-09-27T04:42:07.194Z,941.14
2022-09-27T04:44:33.524Z,941.09
2022-09-27T04:46:59.904Z,941.12
2022-09-27T04:49:26.208Z,941.15
2022-09-27T04:51:52.525Z,941.25
2022-09-27T04:54:18.856Z,941.20
2022-09-27T04:56:45.214Z,941.22
2022-09-27T04:59:11.594Z,941.27
2022-09-27T05:01:37.954Z,941.37
2022-09-27T05:04:04.242Z,941.29
2022-09-27T05:06:30.582Z,941.25
2022-09-27T05:08:56.930Z,941.27
2022-09-27T05:11:23.314Z,941.20
2022-09-27T05:13:49.644Z,941.11
2022-09-27T05:16:16.051Z,941.07
2022-09-27T05:18:42.373Z,941.08
2022-09-27T05:21:08.699Z,940.88
2022-09-27T05:23:35.068Z,940.94
2022-09-27T05:26:01.412Z,940.92
2022-09-27T05:28:27.736Z,940.94
2022-09-27T05:30:54.136Z,940.92
2022-09-27T05:33:20.402Z,940.89
2022-09-27T05:35:46.744Z,940.82
2022-09-27T05:38:13.086Z,940.88
2022-09-27T05:40:41.993Z,940.94
2022-09-27T05:43:05.780Z,941.00
2022-09-27T05:45:32.109Z,941.12
2022-09-27T05:47:58.441Z,941.16
2022-09-27T05:50:24.890Z,941.12
2022-09-27T05:52:51.233Z,941.03
2022-09-27T05:55:17.606Z,941.05
2022-09-27T05:57:43.950Z,940.98
2022-09-27T06:00:10.277Z,941.03
2022-09-27T06:02:36.673Z,941.11
2022-09-27T06:05:02.988Z,941.02
2022-09-27T06:07:29.310Z,941.12
2022-09-27T06:09:55.650Z,941.17
2022-09-27T06:12:22.043Z,941.12
2022-09-27T06:14:48.379Z,941.11
2022-09-27T06:17:14.699Z,941.03
2022-09-27T06:19:41.090Z,941.13
2022-09-27T06:22:07.431Z,941.16
2022-09-27T06:24:33.746Z,941.15
2022-09-27T06:27:00.082Z,941.12
2022-09-27T06:29:26.419Z,941.06
2022-09-27T06:31:52.764Z,940.93
2022-09-27T06:34:19.117Z,940.89
2022-09-27T06:36:47.155Z,941.03
2022-09-27T06:39:11.889Z,941.08
2022-09-27T06:41:38.196Z,941.09
2022-09-27T06:44:04.513Z,940.97
2022-09-27T06:46:30.870Z,940.96
2022-09-27T06:48:57.249Z,940.99
2022-09-27T06:51:23.589Z,941.00
2022-09-27T06:53:49.898Z,941.09
2022-09-27T06:56:16.257Z,941.09
2022-09-27T06:58:42.595Z,941.03
2022-09-27T07:01:08.953Z,940.90
2022-09-27T07:03:40.111Z,940.86
2022-09-27T07:06:01.594Z,940.94
2022-09-27T07:08:27.935Z,941.08
2022-09-27T07:10:54.316Z,941.22
2022-09-27T07:13:20.666Z,941.16
2022-09-27T07:15:46.995Z,941.13
2022-09-27T07:18:13.329Z,941.17
2022-09-27T07:20:39.688Z,941.11
2022-09-27T07:23:06.017Z,941.11
2022-09-27T07:25:32.344Z,941.11
2022-09-27T07:27:58.671Z,941.12
2022-09-27T07:30:25.096Z,941.12
2022-09-27T07:32:51.369Z,941.12
2022-09-27T07:35:17.768Z,941.22
2022-09-27T07:37:44.116Z,941.21
2022-09-27T07:40:10.472Z,941.22
2022-09-27T07:42:36.810Z,941.17
2022-09-27T07:45:07.266Z,941.22
2022-09-27T07:47:29.504Z,941.33
2022-09-27T07:49:55.832Z,941.31
2022-09-27T07:52:22.152Z,941.25
2022-09-27T07:54:48.479Z,941.33
2022-09-27T07:57:14.848Z,941.34
2022-09-27T07:59:41.173Z,941.26
2022-09-27T08:02:07.538Z,941.33
2022-09-27T08:04:33.839Z,941.25
2022-09-27T08:07:00.178Z,941.16
2022-09-27T08:09:26.516Z,941.19
2022-09-27T08:11:52.857Z,941.09
2022-09-27T08:14:19.190Z,941.16
2022-09-27T08:16:45.604Z,941.20
2022-09-27T08:19:11.936Z,941.11
2022-09-27T08:21:38.180Z,941.04
2022-09-27T08:24:04.534Z,940.91
2022-09-27T08:26:30.958Z,941.01
2022-09-27T08:28:57.335Z,941.03
2022-09-27T08:31:23.706Z,941.06
2022-09-27T08:33:49.984Z,941.00
2022-09-27T08:36:16.307Z,940.91
2022-09-27T08:38:42.636Z,940.89
2022-09-27T08:41:09.000Z,940.86
2022-09-27T08:43:35.322Z,940.73
2022-09-27T08:46:01.741Z,940.69
2022-09-27T08:48:27.962Z,940.76
2022-09-27T08:50:54.528Z,940.62
2022-09-27T08:53:20.878Z,940.70
2022-09-27T08:55:47.222Z,940.72
2022-09-27T08:58:13.541Z,940.67
2022-09-27T09:00:39.942Z,940.77
2022-09-27T09:03:06.222Z,940.74
2022-09-27T09:05:32.543Z,940.68
2022-09-27T09:07:58.876Z,940.66
2022-09-27T09:10:25.248Z,940.62
2022-09-27T09:12:51.585Z,940.73
2022-09-27T09:15:17.914Z,940.73
2022-09-27T09:17:44.246Z,940.80
2022-09-27T09:20:14.807Z,940.69
2022-09-27T09:22:36.917Z,940.75
2022-09-27T09:25:03.229Z,940.77
2022-09-27T09:27:29.590Z,940.75
2022-09-27T09:29:55.925Z,940.68
2022-09-27T09:32:22.275Z,940.68
2022-09-27T09:34:48.705Z,940.60
2022-09-27T09:37:14.939Z,940.57
2022-09-27T09:39:41.264Z,940.49
2022-09-27T09:42:07.618Z,940.53
2022-09-27T09:44:33.967Z,940.62
2022-09-27T09:47:00.302Z,940.57
2022-09-27T09:49:26.643Z,940.67
2022-09-27T09:51:52.979Z,940.58
2022-09-27T09:54:19.315Z,940.57
2022-09-27T09:56:45.641Z,940.62
2022-09-27T09:59:11.969Z,940.61
2022-09-27T10:01:38.319Z,940.58
2022-09-27T10:04:04.658Z,940.63
2022-09-27T10:06:31.035Z,940.58
2022-09-27T10:08:57.382Z,940.66
2022-09-27T10:11:23.705Z,940.51
2022-09-27T10:13:50.035Z,940.56
2022-09-27T10:16:16.433Z,940.58
2022-09-27T10:18:46.386Z,940.57
2022-09-27T10:21:09.054Z,940.42
2022-09-27T10:23:35.398Z,940.35
2022-09-27T10:26:01.714Z,940.19
2022-09-27T10:28:28.054Z,940.17
2022-09-27T10:30:54.378Z,940.29
2022-09-27T10:33:20.726Z,940.24
2022-09-27T10:35:47.077Z,940.28
2022-09-27T10:38:13.461Z,940.14
2022-09-27T10:40:39.835Z,940.18
2022-09-27T10:43:06.105Z,940.15
2022-09-27T10:45:32.524Z,940.16
2022-09-27T10:47:58.811Z,940.14
2022-09-27T10:50:49.219Z,940.10
2022-09-27T10:52:51.478Z,940.16
2022-09-27T10:55:17.809Z,940.16
2022-09-27T10:57:45.280Z,940.14
2022-09-27T11:00:10.555Z,939.99
2022-09-27T11:02:36.965Z,939.93
2022-09-27T11:05:03.306Z,939.85
2022-09-27T11:07:29.591Z,939.91
2022-09-27T11:09:55.921Z,939.92
2022-09-27T11:12:22.259Z,939.96
2022-09-27T11:14:48.600Z,939.84
2022-09-27T11:17:14.942Z,939.85
2022-09-27T11:19:41.288Z,939.83
2022-09-27T11:22:07.629Z,939.73
2022-09-27T11:24:33.969Z,939.72
2022-09-27T11:27:00.336Z,939.61
2022-09-27T11:29:26.678Z,939.54
2022-09-27T11:31:53.059Z,939.48
2022-09-27T11:34:19.357Z,939.60
2022-09-27T11:36:45.715Z,939.63
2022-09-27T11:39:12.038Z,939.58
2022-09-27T11:41:38.376Z,939.42
2022-09-27T11:44:04.718Z,939.38
2022-09-27T11:46:38.531Z,939.42
2022-09-27T11:48:57.425Z,939.23
2022-09-27T11:51:23.763Z,939.13
2022-09-27T11:53:50.141Z,939.18
2022-09-27T11:56:16.479Z,939.19
2022-09-27T11:58:42.829Z,939.25
2022-09-27T12:01:09.170Z,939.11
2022-09-27T12:03:35.509Z,939.07
2022-09-27T12:06:06.984Z,939.11
2022-09-27T12:08:28.147Z,938.99
2022-09-27T12:10:54.465Z,939.02
2022-09-27T12:13:20.812Z,938.90
2022-09-27T12:15:47.221Z,938.90
2022-09-27T12:18:13.509Z,939.00
2022-09-27T12:20:39.848Z,938.87
2022-09-27T12:23:06.216Z,938.72
2022-09-27T12:25:32.534Z,938.74
2022-09-27T12:27:58.884Z,938.72
2022-09-27T12:30:25.224Z,938.60
2022-09-27T12:32:51.611Z,938.45
2022-09-27T12:35:17.942Z,938.42
2022-09-27T12:37:44.282Z,938.20
2022-09-27T12:40:10.599Z,938.21
2022-09-27T12:42:36.940Z,938.22
2022-09-27T12:45:03.256Z,938.16
2022-09-27T12:47:29.610Z,938.15
2022-09-27T12:50:01.040Z,938.19
2022-09-27T12:52:22.266Z,938.12
2022-09-27T12:54:48.584Z,938.15
2022-09-27T12:57:18.087Z,938.14
2022-09-27T12:59:41.262Z,938.03
2022-09-27T13:02:07.698Z,938.07
2022-09-27T13:04:33.936Z,938.20
2022-09-27T13:07:00.285Z,938.28
2022-09-27T13:09:26.580Z,938.27
2022-09-27T13:11:52.927Z,938.22
2022-09-27T13:14:19.240Z,938.09
2022-09-27T13:16:45.562Z,938.22
2022-09-27T13:19:12.030Z,938.21
2022-09-27T13:21:38.280Z,938.25
2022-09-27T13:24:04.596Z,938.32
2022-09-27T13:26:30.973Z,938.26
2022-09-27T13:28:57.318Z,938.29
2022-09-27T13:31:23.672Z,938.25
2022-09-27T13:33:49.951Z,938.23
2022-09-27T13:36:16.340Z,938.15
2022-09-27T13:38:42.686Z,938.09
2022-09-27T13:41:09.005Z,938.12
2022-09-27T13:43:35.352Z,938.16
2022-09-27T13:46:01.689Z,938.26
2022-09-27T13:48:28.007Z,938.28
2022-09-27T13:50:54.329Z,938.34
2022-09-27T13:53:20.652Z,938.51
2022-09-27T13:55:46.977Z,938.47
2022-09-27T13:58:13.320Z,938.47
2022-09-27T14:00:39.789Z,938.43
2022-09-27T14:03:05.964Z,938.34
2022-09-27T14:05:32.282Z,938.32
2022-09-27T14:07:58.608Z,938.28
2022-09-27T14:10:24.948Z,938.26
2022-09-27T14:12:51.299Z,938.26
2022-09-27T14:15:17.636Z,938.13
2022-09-27T14:17:43.953Z,938.22
2022-09-27T14:20:10.316Z,938.25
2022-09-27T14:22:39.058Z,938.22
2022-09-27T14:25:02.946Z,938.18
2022-09-27T14:27:29.273Z,938.14
2022-09-27T14:29:55.609Z,938.09
2022-09-27T14:32:21.933Z,938.17
2022-09-27T14:34:48.255Z,937.98
2022-09-27T14:37:14.583Z,937.96
2022-09-27T14:39:40.899Z,938.16
2022-09-27T14:42:07.227Z,938.26
2022-09-27T14:44:33.573Z,938.27
2022-09-27T14:46:59.940Z,938.04
2022-09-27T14:49:26.253Z,938.01
2022-09-27T14:51:53.649Z,938.07
2022-09-27T14:54:19.965Z,938.07
2022-09-27T14:56:49.047Z,938.16
2022-09-27T14:59:12.663Z,938.12
2022-09-27T15:01:38.980Z,938.29
2022-09-27T15:04:05.462Z,938.14
2022-09-27T15:06:31.663Z,937.88
2022-09-27T15:08:57.985Z,937.96
2022-09-27T15:11:24.307Z,938.28
2022-09-27T15:13:50.678Z,938.58
2022-09-27T15:16:17.086Z,938.96
2022-09-27T15:18:43.337Z,939.56
2022-09-27T15:21:09.719Z,939.54
2022-09-27T15:23:36.038Z,939.21
2022-09-27T15:26:02.381Z,939.06
2022-09-27T15:28:28.699Z,939.49
2022-09-27T15:30:55.090Z,939.79
2022-09-27T15:33:21.419Z,939.44
2022-09-27T15:35:47.744Z,939.51
